createdAt,value
2022-08-24T00:01:40.539Z,100.00
2022-08-24T00:04:32.024Z,100.00
2022-08-24T00:07:27.388Z,100.00
2022-08-24T00:10:17.692Z,100.00
2022-08-24T00:13:06.301Z,100.00
2022-08-24T00:15:55.209Z,100.00
2022-08-24T00:18:48.271Z,100.00
2022-08-24T00:21:36.845Z,100.00
2022-08-24T00:24:25.678Z,100.00
2022-08-24T00:27:14.431Z,100.00
2022-08-24T00:30:04.313Z,100.00
2022-08-24T00:32:54.423Z,100.00
2022-08-24T00:35:44.595Z,100.00
2022-08-24T00:38:35.655Z,100.00
2022-08-24T00:41:24.998Z,100.00
2022-08-24T00:44:15.627Z,100.00
2022-08-24T00:47:12.635Z,100.00
2022-08-24T00:50:06.223Z,100.00
2022-08-24T00:53:01.167Z,100.00
2022-08-24T00:55:53.147Z,100.00
2022-08-24T00:58:47.331Z,100.00
2022-08-24T01:01:47.483Z,100.00
2022-08-24T01:04:42.386Z,100.00
2022-08-24T01:07:32.158Z,100.00
2022-08-24T01:10:25.951Z,100.00
2022-08-24T01:13:16.157Z,100.00
2022-08-24T01:16:08.502Z,100.00
2022-08-24T01:18:56.022Z,100.00
2022-08-24T01:21:54.527Z,100.00
2022-08-24T01:24:44.997Z,100.00
2022-08-24T01:27:36.517Z,100.00
2022-08-24T01:30:30.391Z,100.00
2022-08-24T01:33:24.888Z,100.00
2022-08-24T01:36:21.153Z,100.00
2022-08-24T01:39:20.763Z,100.00
2022-08-24T01:42:11.838Z,100.00
2022-08-24T01:45:04.079Z,100.00
2022-08-24T01:47:52.678Z,100.00
2022-08-24T01:50:41.127Z,100.00
2022-08-24T01:53:30.921Z,100.00
2022-08-24T01:56:19.377Z,100.00
2022-08-24T01:59:12.569Z,100.00
2022-08-24T02:02:07.829Z,100.00
2022-08-24T02:04:56.489Z,100.00
2022-08-24T02:07:46.013Z,100.00
2022-08-24T02:10:35.445Z,100.00
2022-08-24T02:13:25.017Z,100.00
2022-08-24T02:16:15.383Z,100.00
2022-08-24T02:19:03.959Z,100.00
2022-08-24T02:21:53.435Z,100.00
2022-08-24T02:24:42.008Z,100.00
2022-08-24T02:27:30.819Z,100.00
2022-08-24T02:30:19.839Z,100.00
2022-08-24T02:33:09.789Z,100.00
2022-08-24T02:35:58.383Z,100.00
2022-08-24T02:38:46.892Z,100.00
2022-08-24T02:41:39.537Z,100.00
2022-08-24T02:44:28.289Z,100.00
2022-08-24T02:47:17.707Z,100.00
2022-08-24T02:50:12.080Z,100.00
2022-08-24T02:53:00.529Z,100.00
2022-08-24T02:55:49.752Z,100.00
2022-08-24T02:58:39.299Z,100.00
2022-08-24T03:01:30.409Z,100.00
2022-08-24T03:04:20.887Z,100.00
2022-08-24T03:07:10.858Z,100.00
2022-08-24T03:09:59.410Z,100.00
2022-08-24T03:12:48.254Z,100.00
2022-08-24T03:15:36.698Z,100.00
2022-08-24T03:18:26.689Z,100.00
2022-08-24T03:21:15.704Z,100.00
2022-08-24T03:24:07.451Z,100.00
2022-08-24T03:26:56.326Z,100.00
2022-08-24T03:29:47.558Z,100.00
2022-08-24T03:32:38.906Z,100.00
2022-08-24T03:35:27.634Z,100.00
2022-08-24T03:38:16.140Z,100.00
2022-08-24T03:41:06.414Z,100.00
2022-08-24T03:43:56.504Z,100.00
2022-08-24T03:46:46.450Z,100.00
2022-08-24T03:49:35.013Z,100.00
2022-08-24T03:52:23.646Z,100.00
2022-08-24T03:55:14.670Z,100.00
2022-08-24T03:58:04.809Z,100.00
2022-08-24T04:00:54.802Z,100.00
2022-08-24T04:03:46.107Z,100.00
2022-08-24T04:06:35.788Z,100.00
2022-08-24T04:09:24.610Z,100.00
2022-08-24T04:12:13.050Z,100.00
2022-08-24T04:15:03.463Z,100.00
2022-08-24T04:17:52.500Z,100.00
2022-08-24T04:20:42.355Z,100.00
2022-08-24T04:23:47.074Z,100.00
2022-08-24T04:26:45.298Z,100.00
2022-08-24T04:29:36.109Z,100.00
2022-08-24T04:32:25.958Z,100.00
2022-08-24T04:35:16.311Z,100.00
2022-08-24T04:38:04.984Z,100.00
2022-08-24T04:40:54.086Z,100.00
2022-08-24T04:43:45.361Z,100.00
2022-08-24T04:46:35.479Z,100.00
2022-08-24T04:49:25.402Z,100.00
2022-08-24T04:52:13.794Z,100.00
2022-08-24T04:55:04.124Z,100.00
2022-08-24T04:57:56.487Z,100.00
2022-08-24T05:00:45.945Z,100.00
2022-08-24T05:03:35.351Z,100.00
2022-08-24T05:06:26.732Z,100.00
2022-08-24T05:09:15.145Z,100.00
2022-08-24T05:12:05.635Z,100.00
2022-08-24T05:14:59.113Z,100.00
2022-08-24T05:17:51.329Z,100.00
2022-08-24T05:20:41.715Z,100.00
2022-08-24T05:23:31.663Z,100.00
2022-08-24T05:26:24.043Z,100.00
2022-08-24T05:29:12.701Z,100.00
2022-08-24T05:32:06.393Z,100.00
2022-08-24T05:34:54.984Z,100.00
2022-08-24T05:37:44.549Z,100.00
2022-08-24T05:40:38.384Z,99.85
2022-08-24T05:43:26.979Z,99.29
2022-08-24T05:46:17.035Z,97.54
2022-08-24T05:49:08.729Z,97.76
2022-08-24T05:51:57.105Z,100.00
2022-08-24T05:54:47.035Z,99.02
2022-08-24T05:57:38.865Z,97.95
2022-08-24T06:00:45.776Z,95.99
2022-08-24T06:03:34.995Z,96.46
2022-08-24T06:06:25.408Z,94.63
2022-08-24T06:09:14.529Z,94.06
2022-08-24T06:12:03.563Z,95.36
2022-08-24T06:14:54.012Z,94.94
2022-08-24T06:17:44.926Z,95.82
2022-08-24T06:20:34.308Z,95.69
2022-08-24T06:23:23.090Z,97.06
2022-08-24T06:26:37.711Z,96.81
2022-08-24T06:29:26.668Z,97.73
2022-08-24T06:32:20.538Z,95.73
2022-08-24T06:35:11.465Z,96.24
2022-08-24T06:38:00.220Z,95.51
2022-08-24T06:40:48.754Z,92.77
2022-08-24T06:43:37.598Z,91.92
2022-08-24T06:46:33.117Z,91.64
2022-08-24T06:49:23.858Z,90.99
2022-08-24T06:52:12.353Z,89.93
2022-08-24T06:55:01.190Z,89.78
2022-08-24T06:57:52.484Z,88.99
2022-08-24T07:00:42.071Z,88.51
2022-08-24T07:03:30.693Z,87.80
2022-08-24T07:06:36.911Z,87.85
2022-08-24T07:09:25.889Z,87.30
2022-08-24T07:12:14.352Z,86.07
2022-08-24T07:15:03.195Z,85.86
2022-08-24T07:17:57.832Z,85.13
2022-08-24T07:20:46.907Z,85.43
2022-08-24T07:23:58.391Z,84.94
2022-08-24T07:26:47.883Z,84.63
2022-08-24T07:29:50.471Z,84.26
2022-08-24T07:32:45.237Z,84.23
2022-08-24T07:35:34.837Z,84.16
2022-08-24T07:38:23.681Z,83.41
2022-08-24T07:41:38.294Z,83.83
2022-08-24T07:44:23.551Z,83.55
2022-08-24T07:47:37.034Z,82.74
2022-08-24T07:50:23.335Z,80.41
2022-08-24T07:53:15.020Z,80.82
2022-08-24T07:56:07.806Z,80.06
2022-08-24T07:58:59.403Z,79.19
2022-08-24T08:01:48.148Z,79.32
2022-08-24T08:04:36.604Z,80.71
2022-08-24T08:07:25.611Z,80.37
2022-08-24T08:10:14.452Z,80.18
2022-08-24T08:13:03.679Z,83.80
2022-08-24T08:15:59.334Z,84.09
2022-08-24T08:18:56.398Z,81.35
2022-08-24T08:22:12.737Z,79.83
2022-08-24T08:25:34.956Z,81.33
2022-08-24T08:28:35.471Z,79.60
2022-08-24T08:31:26.026Z,80.41
2022-08-24T08:34:16.388Z,78.54
2022-08-24T08:37:05.585Z,78.45
2022-08-24T08:39:54.864Z,78.19
2022-08-24T08:42:58.160Z,77.21
2022-08-24T08:46:14.245Z,77.06
2022-08-24T08:49:51.271Z,76.34
2022-08-24T08:53:17.665Z,75.20
2022-08-24T08:56:21.731Z,74.67
2022-08-24T08:59:22.185Z,76.39
2022-08-24T09:02:35.610Z,76.36
2022-08-24T09:05:59.893Z,76.68
2022-08-24T09:09:08.361Z,75.88
2022-08-24T09:12:07.857Z,74.97
2022-08-24T09:15:16.838Z,74.51
2022-08-24T09:18:17.013Z,73.88
2022-08-24T09:21:31.385Z,73.15
2022-08-24T09:24:43.285Z,72.53
2022-08-24T09:28:02.175Z,72.66
2022-08-24T09:31:06.393Z,73.44
2022-08-24T09:34:10.164Z,75.81
2022-08-24T09:37:12.784Z,79.19
2022-08-24T09:40:17.196Z,79.71
2022-08-24T09:43:36.557Z,77.79
2022-08-24T09:47:08.840Z,79.12
2022-08-24T09:50:36.338Z,76.27
2022-08-24T09:54:18.263Z,78.13
2022-08-24T09:57:50.415Z,76.67
2022-08-24T10:00:47.724Z,77.75
2022-08-24T10:03:51.935Z,76.38
2022-08-24T10:06:55.688Z,77.35
2022-08-24T10:10:04.610Z,76.19
2022-08-24T10:13:04.738Z,75.29
2022-08-24T10:16:07.403Z,74.67
2022-08-24T10:19:07.901Z,76.91
2022-08-24T10:22:05.610Z,74.39
2022-08-24T10:25:11.458Z,73.75
2022-08-24T10:28:16.882Z,72.52
2022-08-24T10:31:12.178Z,71.65
2022-08-24T10:34:29.001Z,69.03
2022-08-24T10:37:42.302Z,68.67
2022-08-24T10:40:39.899Z,67.73
2022-08-24T10:43:49.036Z,67.62
2022-08-24T10:46:49.321Z,68.25
2022-08-24T10:50:13.739Z,68.89
2022-08-24T10:53:15.503Z,70.20
2022-08-24T10:56:12.011Z,68.05
2022-08-24T10:59:16.395Z,69.73
2022-08-24T11:02:12.725Z,72.76
2022-08-24T11:05:08.368Z,69.35
2022-08-24T11:08:03.413Z,69.51
2022-08-24T11:11:14.483Z,70.52
2022-08-24T11:14:10.330Z,71.25
2022-08-24T11:17:17.803Z,71.21
2022-08-24T11:20:29.876Z,73.68
2022-08-24T11:23:29.596Z,69.06
2022-08-24T11:26:30.420Z,67.96
2022-08-24T11:29:23.104Z,70.11
2022-08-24T11:32:27.701Z,70.65
2022-08-24T11:35:27.574Z,71.95
2022-08-24T11:38:27.151Z,72.46
2022-08-24T11:41:26.992Z,73.98
2022-08-24T11:44:36.400Z,73.55
2022-08-24T11:47:51.928Z,71.97
2022-08-24T11:50:50.404Z,70.57
2022-08-24T11:53:46.766Z,69.27
2022-08-24T11:56:44.555Z,69.36
2022-08-24T11:59:43.286Z,66.80
2022-08-24T12:02:37.598Z,64.09
2022-08-24T12:05:32.055Z,61.84
2022-08-24T12:08:28.731Z,60.17
2022-08-24T12:11:25.273Z,60.06
2022-08-24T12:14:23.114Z,60.37
2022-08-24T12:17:20.532Z,61.64
2022-08-24T12:20:23.252Z,60.67
2022-08-24T12:23:17.038Z,63.33
2022-08-24T12:26:10.911Z,61.35
2022-08-24T12:29:03.051Z,59.92
2022-08-24T12:31:56.342Z,57.99
2022-08-24T12:34:59.106Z,58.07
2022-08-24T12:37:52.303Z,57.81
2022-08-24T12:40:46.242Z,58.47
2022-08-24T12:43:49.553Z,61.29
2022-08-24T12:46:45.222Z,62.61
2022-08-24T12:49:50.382Z,60.05
2022-08-24T12:53:15.265Z,58.86
2022-08-24T12:56:47.224Z,60.00
2022-08-24T12:59:43.800Z,59.26
2022-08-24T13:02:47.638Z,58.17
2022-08-24T13:05:45.141Z,59.71
2022-08-24T13:08:38.406Z,60.11
2022-08-24T13:11:32.415Z,58.35
2022-08-24T13:14:24.264Z,59.72
2022-08-24T13:17:14.682Z,58.97
2022-08-24T13:20:20.193Z,58.88
2022-08-24T13:23:18.857Z,58.71
2022-08-24T13:26:26.711Z,59.39
2022-08-24T13:29:17.607Z,58.80
2022-08-24T13:32:08.355Z,59.88
2022-08-24T13:34:59.198Z,60.47
2022-08-24T13:38:27.087Z,60.86
2022-08-24T13:41:30.355Z,61.74
2022-08-24T13:44:26.765Z,62.19
2022-08-24T13:47:20.967Z,62.85
2022-08-24T13:50:15.589Z,62.16
2022-08-24T13:53:31.120Z,61.62
2022-08-24T13:56:32.758Z,65.53
2022-08-24T13:59:53.587Z,65.88
2022-08-24T14:02:59.840Z,63.75
2022-08-24T14:05:52.121Z,65.21
2022-08-24T14:08:51.548Z,66.28
2022-08-24T14:11:56.024Z,65.70
2022-08-24T14:15:03.693Z,65.56
2022-08-24T14:18:03.545Z,64.41
2022-08-24T14:21:09.867Z,62.75
2022-08-24T14:24:04.109Z,62.71
2022-08-24T14:27:08.281Z,62.62
2022-08-24T14:30:35.598Z,63.54
2022-08-24T14:33:30.739Z,62.58
2022-08-24T14:36:22.099Z,61.90
2022-08-24T14:39:20.947Z,61.87
2022-08-24T14:42:18.233Z,62.99
2022-08-24T14:45:10.454Z,61.86
2022-08-24T14:48:05.967Z,64.18
2022-08-24T14:51:02.131Z,62.48
2022-08-24T14:54:00.651Z,61.94
2022-08-24T14:57:00.431Z,61.45
2022-08-24T15:00:01.740Z,61.27
2022-08-24T15:03:25.973Z,61.86
2022-08-24T15:06:27.826Z,62.60
2022-08-24T15:09:24.120Z,62.62
2022-08-24T15:12:21.336Z,62.03
2022-08-24T15:15:19.124Z,61.21
2022-08-24T15:18:34.863Z,60.49
2022-08-24T15:21:34.635Z,59.38
2022-08-24T15:24:36.948Z,60.77
2022-08-24T15:27:34.683Z,60.97
2022-08-24T15:30:28.362Z,60.05
2022-08-24T15:33:19.629Z,60.08
2022-08-24T15:36:12.059Z,60.41
2022-08-24T15:39:01.727Z,58.02
2022-08-24T15:41:50.593Z,57.19
2022-08-24T15:44:41.228Z,58.29
2022-08-24T15:47:33.240Z,57.17
2022-08-24T15:50:25.287Z,54.81
2022-08-24T15:53:30.423Z,55.68
2022-08-24T15:56:36.109Z,57.42
2022-08-24T15:59:29.748Z,58.48
2022-08-24T16:02:28.647Z,61.29
2022-08-24T16:05:38.350Z,66.73
2022-08-24T16:08:26.768Z,65.95
2022-08-24T16:11:27.577Z,66.68
2022-08-24T16:14:26.152Z,68.67
2022-08-24T16:17:27.744Z,67.22
2022-08-24T16:20:32.780Z,66.79
2022-08-24T16:23:28.378Z,66.79
2022-08-24T16:26:23.939Z,67.01
2022-08-24T16:29:45.219Z,67.30
2022-08-24T16:32:49.816Z,67.69
2022-08-24T16:35:40.959Z,67.88
2022-08-24T16:38:31.347Z,69.05
2022-08-24T16:41:22.385Z,73.22
2022-08-24T16:44:11.779Z,75.46
2022-08-24T16:47:00.178Z,75.09
2022-08-24T16:49:49.212Z,75.35
2022-08-24T16:52:39.006Z,74.16
2022-08-24T16:55:28.638Z,74.08
2022-08-24T16:58:17.743Z,77.01
2022-08-24T17:01:06.403Z,75.37
2022-08-24T17:03:55.429Z,75.16
2022-08-24T17:06:44.484Z,73.79
2022-08-24T17:09:36.649Z,72.43
2022-08-24T17:12:27.097Z,71.76
2022-08-24T17:15:16.342Z,71.45
2022-08-24T17:18:07.551Z,71.71
2022-08-24T17:20:55.935Z,72.34
2022-08-24T17:23:44.631Z,72.84
2022-08-24T17:26:34.818Z,72.65
2022-08-24T17:29:24.116Z,73.96
2022-08-24T17:32:13.140Z,74.40
2022-08-24T17:35:03.259Z,75.15
2022-08-24T17:37:53.730Z,75.30
2022-08-24T17:40:42.042Z,75.50
2022-08-24T17:43:32.152Z,76.49
2022-08-24T17:46:22.092Z,77.06
2022-08-24T17:49:12.352Z,78.09
2022-08-24T17:52:00.806Z,84.44
2022-08-24T17:54:49.300Z,85.62
2022-08-24T17:57:38.785Z,84.73
2022-08-24T18:00:28.845Z,86.01
2022-08-24T18:03:17.417Z,86.44
2022-08-24T18:06:06.138Z,87.20
2022-08-24T18:08:56.803Z,85.92
2022-08-24T18:11:45.293Z,83.67
2022-08-24T18:14:34.698Z,81.48
2022-08-24T18:17:31.465Z,86.01
2022-08-24T18:20:24.180Z,84.04
2022-08-24T18:23:13.066Z,87.07
2022-08-24T18:26:06.094Z,85.75
2022-08-24T18:28:55.662Z,87.75
2022-08-24T18:31:44.751Z,84.77
2022-08-24T18:34:35.119Z,83.82
2022-08-24T18:37:24.330Z,83.22
2022-08-24T18:40:20.392Z,83.88
2022-08-24T18:43:10.294Z,83.29
2022-08-24T18:45:59.077Z,83.82
2022-08-24T18:48:47.548Z,83.45
2022-08-24T18:51:38.395Z,84.35
2022-08-24T18:54:31.659Z,83.37
2022-08-24T18:57:20.664Z,85.03
2022-08-24T19:00:11.965Z,86.00
2022-08-24T19:03:05.685Z,85.47
2022-08-24T19:05:54.412Z,84.89
2022-08-24T19:08:44.229Z,84.64
2022-08-24T19:11:32.590Z,84.69
2022-08-24T19:14:21.096Z,84.70
2022-08-24T19:17:09.583Z,84.42
2022-08-24T19:19:58.413Z,84.34
2022-08-24T19:22:47.746Z,84.11
2022-08-24T19:25:38.915Z,83.91
2022-08-24T19:28:27.907Z,84.80
2022-08-24T19:31:16.663Z,84.57
2022-08-24T19:34:05.439Z,84.78
2022-08-24T19:36:55.018Z,84.84
2022-08-24T19:39:43.612Z,84.98
2022-08-24T19:42:36.779Z,85.06
2022-08-24T19:45:44.980Z,84.72
2022-08-24T19:48:34.873Z,84.18
2022-08-24T19:51:23.401Z,84.17
2022-08-24T19:54:12.093Z,84.52
2022-08-24T19:57:02.012Z,84.02
2022-08-24T19:59:52.597Z,84.49
2022-08-24T20:02:41.083Z,84.33
2022-08-24T20:05:30.117Z,84.45
2022-08-24T20:08:20.089Z,84.20
2022-08-24T20:11:09.402Z,83.98
2022-08-24T20:13:57.761Z,83.69
2022-08-24T20:16:47.624Z,84.04
2022-08-24T20:19:40.173Z,84.23
2022-08-24T20:22:29.326Z,84.07
2022-08-24T20:25:18.725Z,84.04
2022-08-24T20:31:19.038Z,84.71
2022-08-24T20:34:08.859Z,84.74
2022-08-24T20:36:58.674Z,84.70
2022-08-24T20:39:47.080Z,85.04
2022-08-24T20:42:35.591Z,85.22
2022-08-24T20:45:23.960Z,85.09
2022-08-24T20:48:13.827Z,85.27
2022-08-24T20:51:03.657Z,85.37
2022-08-24T20:53:52.092Z,85.77
2022-08-24T20:56:40.523Z,85.92
2022-08-24T20:59:29.042Z,86.17
2022-08-24T21:02:17.420Z,86.02
2022-08-24T21:05:06.742Z,86.22
2022-08-24T21:07:58.042Z,86.82
2022-08-24T21:10:47.738Z,86.68
2022-08-24T21:13:36.192Z,86.61
2022-08-24T21:16:24.886Z,87.17
2022-08-24T21:19:17.845Z,87.08
2022-08-24T21:22:06.402Z,87.25
2022-08-24T21:24:56.220Z,88.29
2022-08-24T21:27:47.596Z,88.28
2022-08-24T21:30:36.032Z,87.86
2022-08-24T21:33:42.061Z,88.18
2022-08-24T21:36:31.926Z,88.42
2022-08-24T21:39:20.486Z,88.34
2022-08-24T21:42:10.773Z,88.54
2022-08-24T21:44:59.187Z,88.19
2022-08-24T21:47:47.682Z,88.30
2022-08-24T21:50:36.223Z,88.30
2022-08-24T21:53:28.439Z,87.81
2022-08-24T21:56:23.612Z,88.13
2022-08-24T21:59:13.821Z,88.43
2022-08-24T22:02:04.174Z,88.59
2022-08-24T22:04:56.791Z,88.50
2022-08-24T22:07:45.808Z,88.69
2022-08-24T22:10:34.162Z,88.65
2022-08-24T22:13:22.597Z,88.62
2022-08-24T22:16:13.422Z,88.95
2022-08-24T22:19:02.215Z,88.87
2022-08-24T22:21:50.815Z,88.89
2022-08-24T22:24:39.166Z,89.19
2022-08-24T22:27:27.654Z,89.41
2022-08-24T22:30:18.414Z,89.65
2022-08-24T22:33:09.357Z,89.81
2022-08-24T22:35:57.849Z,89.78
2022-08-24T22:38:46.455Z,90.21
2022-08-24T22:41:35.355Z,91.35
2022-08-24T22:44:24.283Z,90.20
2022-08-24T22:47:13.401Z,91.25
2022-08-24T22:50:05.648Z,90.77
2022-08-24T22:52:54.559Z,90.34
2022-08-24T22:55:43.067Z,90.19
2022-08-24T22:58:31.571Z,90.58
2022-08-24T23:01:21.864Z,90.50
2022-08-24T23:04:13.117Z,90.72
2022-08-24T23:07:03.890Z,90.82
2022-08-24T23:09:52.339Z,92.00
2022-08-24T23:12:40.841Z,92.45
2022-08-24T23:15:29.514Z,92.28
2022-08-24T23:18:31.990Z,92.40
2022-08-24T23:21:21.039Z,92.47
2022-08-24T23:24:13.213Z,92.21
2022-08-24T23:27:02.681Z,91.87
2022-08-24T23:29:51.328Z,91.67
2022-08-24T23:32:40.827Z,91.48
2022-08-24T23:35:29.621Z,91.31
2022-08-24T23:38:18.323Z,91.71
2022-08-24T23:41:12.685Z,92.02
2022-08-24T23:44:02.614Z,92.13
2022-08-24T23:46:51.447Z,92.63
2022-08-24T23:49:41.801Z,92.22
2022-08-24T23:52:30.747Z,91.94
2022-08-24T23:55:21.082Z,91.73
2022-08-24T23:58:11.473Z,93.00
